sensor_id;sensor_type;location;lat;lon;timestamp;temperature;humidity
9383;DHT22;4731;49.708;10.816;2023-03-11T00:00:08;2.10;99.90
9383;DHT22;4731;49.708;10.816;2023-03-11T00:02:38;2.10;99.90
9383;DHT22;4731;49.708;10.816;2023-03-11T00:05:05;2.10;99.90
9383;DHT22;4731;49.708;10.816;2023-03-11T00:07:32;2.10;99.90
9383;DHT22;4731;49.708;10.816;2023-03-11T00:09:58;2.10;99.90
9383;DHT22;4731;49.708;10.816;2023-03-11T00:12:25;2.10;99.90
9383;DHT22;4731;49.708;10.816;2023-03-11T00:14:52;2.10;99.90
9383;DHT22;4731;49.708;10.816;2023-03-11T00:17:20;2.00;99.90
9383;DHT22;4731;49.708;10.816;2023-03-11T00:19:47;2.00;99.90
9383;DHT22;4731;49.708;10.816;2023-03-11T00:22:14;2.10;99.90
9383;DHT22;4731;49.708;10.816;2023-03-11T00:24:40;2.10;99.90
9383;DHT22;4731;49.708;10.816;2023-03-11T00:27:07;2.00;99.90
9383;DHT22;4731;49.708;10.816;2023-03-11T00:29:34;2.00;99.90
9383;DHT22;4731;49.708;10.816;2023-03-11T00:32:00;2.00;99.90
9383;DHT22;4731;49.708;10.816;2023-03-11T00:34:28;2.00;99.90
9383;DHT22;4731;49.708;10.816;2023-03-11T00:36:55;2.00;99.90
9383;DHT22;4731;49.708;10.816;2023-03-11T00:39:22;2.00;99.90
9383;DHT22;4731;49.708;10.816;2023-03-11T00:41:48;2.00;99.90
9383;DHT22;4731;49.708;10.816;2023-03-11T00:44:16;2.00;99.90
9383;DHT22;4731;49.708;10.816;2023-03-11T00:46:43;1.90;99.90
9383;DHT22;4731;49.708;10.816;2023-03-11T00:49:09;1.90;99.90
9383;DHT22;4731;49.708;10.816;2023-03-11T00:51:38;1.90;99.90
9383;DHT22;4731;49.708;10.816;2023-03-11T00:54:05;1.90;99.90
9383;DHT22;4731;49.708;10.816;2023-03-11T00:56:32;1.90;99.90
9383;DHT22;4731;49.708;10.816;2023-03-11T00:58:58;1.90;99.90
9383;DHT22;4731;49.708;10.816;2023-03-11T01:01:25;4.30;99.90
9383;DHT22;4731;49.708;10.816;2023-03-11T01:03:52;1.90;99.90
9383;DHT22;4731;49.708;10.816;2023-03-11T01:06:19;1.90;99.90
9383;DHT22;4731;49.708;10.816;2023-03-11T01:08:47;1.90;99.90
9383;DHT22;4731;49.708;10.816;2023-03-11T01:11:13;1.90;99.90
9383;DHT22;4731;49.708;10.816;2023-03-11T01:13:40;1.90;99.90
9383;DHT22;4731;49.708;10.816;2023-03-11T01:16:07;1.80;99.90
9383;DHT22;4731;49.708;10.816;2023-03-11T01:18:34;1.80;99.90
9383;DHT22;4731;49.708;10.816;2023-03-11T01:21:01;1.80;99.90
9383;DHT22;4731;49.708;10.816;2023-03-11T01:23:28;1.80;99.90
9383;DHT22;4731;49.708;10.816;2023-03-11T01:25:56;1.80;99.90
9383;DHT22;4731;49.708;10.816;2023-03-11T01:28:22;1.80;99.90
9383;DHT22;4731;49.708;10.816;2023-03-11T01:30:49;1.80;99.90
9383;DHT22;4731;49.708;10.816;2023-03-11T01:33:17;1.80;99.90
9383;DHT22;4731;49.708;10.816;2023-03-11T01:35:45;1.80;99.90
9383;DHT22;4731;49.708;10.816;2023-03-11T01:38:14;1.80;99.90
9383;DHT22;4731;49.708;10.816;2023-03-11T01:40:44;2.20;99.90
9383;DHT22;4731;49.708;10.816;2023-03-11T01:43:47;1.80;99.90
9383;DHT22;4731;49.708;10.816;2023-03-11T01:46:16;1.70;99.90
9383;DHT22;4731;49.708;10.816;2023-03-11T01:48:46;1.80;99.90
9383;DHT22;4731;49.708;10.816;2023-03-11T01:51:13;1.70;99.90
9383;DHT22;4731;49.708;10.816;2023-03-11T01:53:41;1.80;99.90
9383;DHT22;4731;49.708;10.816;2023-03-11T01:56:08;1.70;99.90
9383;DHT22;4731;49.708;10.816;2023-03-11T01:58:37;1.80;99.90
9383;DHT22;4731;49.708;10.816;2023-03-11T02:01:06;1.70;99.90
9383;DHT22;4731;49.708;10.816;2023-03-11T02:03:35;1.70;99.90
9383;DHT22;4731;49.708;10.816;2023-03-11T02:06:06;1.70;99.90
9383;DHT22;4731;49.708;10.816;2023-03-11T02:08:33;1.70;99.90
9383;DHT22;4731;49.708;10.816;2023-03-11T02:11:02;1.70;99.90
9383;DHT22;4731;49.708;10.816;2023-03-11T02:13:31;1.70;99.90
9383;DHT22;4731;49.708;10.816;2023-03-11T02:15:59;1.70;99.90
9383;DHT22;4731;49.708;10.816;2023-03-11T02:18:27;1.70;99.90
9383;DHT22;4731;49.708;10.816;2023-03-11T02:21:02;1.70;99.90
9383;DHT22;4731;49.708;10.816;2023-03-11T02:23:38;1.70;99.90
9383;DHT22;4731;49.708;10.816;2023-03-11T02:26:10;1.60;99.90
9383;DHT22;4731;49.708;10.816;2023-03-11T02:28:41;1.60;99.90
9383;DHT22;4731;49.708;10.816;2023-03-11T02:31:08;1.60;99.90
9383;DHT22;4731;49.708;10.816;2023-03-11T02:33:35;1.60;99.90
9383;DHT22;4731;49.708;10.816;2023-03-11T02:36:03;1.60;99.90
9383;DHT22;4731;49.708;10.816;2023-03-11T02:38:30;1.50;99.90
9383;DHT22;4731;49.708;10.816;2023-03-11T02:40:59;1.50;99.90
9383;DHT22;4731;49.708;10.816;2023-03-11T02:43:33;1.50;99.90
9383;DHT22;4731;49.708;10.816;2023-03-11T02:46:04;1.50;99.90
9383;DHT22;4731;49.708;10.816;2023-03-11T02:48:33;1.50;99.90
9383;DHT22;4731;49.708;10.816;2023-03-11T02:51:01;1.50;99.90
9383;DHT22;4731;49.708;10.816;2023-03-11T02:53:30;1.50;99.90
9383;DHT22;4731;49.708;10.816;2023-03-11T02:55:58;1.40;99.90
9383;DHT22;4731;49.708;10.816;2023-03-11T02:58:25;1.40;99.90
9383;DHT22;4731;49.708;10.816;2023-03-11T03:00:51;1.40;99.90
9383;DHT22;4731;49.708;10.816;2023-03-11T03:03:20;1.40;99.90
9383;DHT22;4731;49.708;10.816;2023-03-11T03:05:46;1.40;99.90
9383;DHT22;4731;49.708;10.816;2023-03-11T03:08:13;1.30;99.90
9383;DHT22;4731;49.708;10.816;2023-03-11T03:10:40;1.30;99.90
9383;DHT22;4731;49.708;10.816;2023-03-11T03:13:06;1.30;99.90
9383;DHT22;4731;49.708;10.816;2023-03-11T03:15:33;1.30;99.90
9383;DHT22;4731;49.708;10.816;2023-03-11T03:18:00;1.30;99.90
9383;DHT22;4731;49.708;10.816;2023-03-11T03:20:28;1.30;99.90
9383;DHT22;4731;49.708;10.816;2023-03-11T03:22:55;1.20;99.90
9383;DHT22;4731;49.708;10.816;2023-03-11T03:25:21;1.20;99.90
9383;DHT22;4731;49.708;10.816;2023-03-11T03:27:48;1.20;99.90
9383;DHT22;4731;49.708;10.816;2023-03-11T03:30:15;1.20;99.90
9383;DHT22;4731;49.708;10.816;2023-03-11T03:32:42;1.20;99.90
9383;DHT22;4731;49.708;10.816;2023-03-11T03:35:09;1.20;99.90
9383;DHT22;4731;49.708;10.816;2023-03-11T03:37:38;1.10;99.90
9383;DHT22;4731;49.708;10.816;2023-03-11T03:40:06;1.10;99.90
9383;DHT22;4731;49.708;10.816;2023-03-11T03:42:33;1.10;99.90
9383;DHT22;4731;49.708;10.816;2023-03-11T03:45:06;1.10;99.90
9383;DHT22;4731;49.708;10.816;2023-03-11T03:47:34;1.10;99.90
9383;DHT22;4731;49.708;10.816;2023-03-11T03:50:01;1.10;99.90
9383;DHT22;4731;49.708;10.816;2023-03-11T03:52:28;1.10;99.90
9383;DHT22;4731;49.708;10.816;2023-03-11T03:54:56;1.10;99.90
9383;DHT22;4731;49.708;10.816;2023-03-11T03:57:23;1.10;99.90
9383;DHT22;4731;49.708;10.816;2023-03-11T03:59:50;1.10;99.90
9383;DHT22;4731;49.708;10.816;2023-03-11T04:02:17;1.10;99.90
9383;DHT22;4731;49.708;10.816;2023-03-11T04:04:43;1.10;99.90
9383;DHT22;4731;49.708;10.816;2023-03-11T04:07:10;1.10;99.90
9383;DHT22;4731;49.708;10.816;2023-03-11T04:09:38;1.10;99.90
9383;DHT22;4731;49.708;10.816;2023-03-11T04:12:07;1.00;99.90
9383;DHT22;4731;49.708;10.816;2023-03-11T04:14:37;1.00;99.90
9383;DHT22;4731;49.708;10.816;2023-03-11T04:17:03;1.00;99.90
9383;DHT22;4731;49.708;10.816;2023-03-11T04:19:31;1.00;99.90
9383;DHT22;4731;49.708;10.816;2023-03-11T04:21:58;1.00;99.90
9383;DHT22;4731;49.708;10.816;2023-03-11T04:24:25;1.00;99.90
9383;DHT22;4731;49.708;10.816;2023-03-11T04:26:51;1.00;99.90
9383;DHT22;4731;49.708;10.816;2023-03-11T04:29:20;1.00;99.90
9383;DHT22;4731;49.708;10.816;2023-03-11T04:31:47;1.00;99.90
9383;DHT22;4731;49.708;10.816;2023-03-11T04:34:14;1.00;99.90
9383;DHT22;4731;49.708;10.816;2023-03-11T04:36:40;1.00;99.90
9383;DHT22;4731;49.708;10.816;2023-03-11T04:39:07;0.90;99.90
9383;DHT22;4731;49.708;10.816;2023-03-11T04:41:34;0.90;99.90
9383;DHT22;4731;49.708;10.816;2023-03-11T04:44:01;0.80;99.90
9383;DHT22;4731;49.708;10.816;2023-03-11T04:46:29;0.70;99.90
9383;DHT22;4731;49.708;10.816;2023-03-11T04:48:56;0.60;99.90
9383;DHT22;4731;49.708;10.816;2023-03-11T04:51:23;0.60;99.90
9383;DHT22;4731;49.708;10.816;2023-03-11T04:53:50;0.60;99.90
9383;DHT22;4731;49.708;10.816;2023-03-11T04:56:16;0.60;99.90
9383;DHT22;4731;49.708;10.816;2023-03-11T04:58:43;0.50;99.90
9383;DHT22;4731;49.708;10.816;2023-03-11T05:01:10;0.50;99.90
9383;DHT22;4731;49.708;10.816;2023-03-11T05:03:38;0.50;99.90
9383;DHT22;4731;49.708;10.816;2023-03-11T05:06:05;0.50;99.90
9383;DHT22;4731;49.708;10.816;2023-03-11T05:08:32;0.50;99.90
9383;DHT22;4731;49.708;10.816;2023-03-11T05:10:59;0.60;99.90
9383;DHT22;4731;49.708;10.816;2023-03-11T05:13:25;0.60;99.90
9383;DHT22;4731;49.708;10.816;2023-03-11T05:15:52;0.60;99.90
9383;DHT22;4731;49.708;10.816;2023-03-11T05:18:19;0.60;99.90
9383;DHT22;4731;49.708;10.816;2023-03-11T05:20:47;0.60;99.90
9383;DHT22;4731;49.708;10.816;2023-03-11T05:23:14;0.50;99.90
9383;DHT22;4731;49.708;10.816;2023-03-11T05:25:40;0.50;99.90
9383;DHT22;4731;49.708;10.816;2023-03-11T05:28:07;0.40;99.90
9383;DHT22;4731;49.708;10.816;2023-03-11T05:30:34;0.30;99.90
9383;DHT22;4731;49.708;10.816;2023-03-11T05:33:01;0.30;99.90
9383;DHT22;4731;49.708;10.816;2023-03-11T05:35:28;0.30;99.90
9383;DHT22;4731;49.708;10.816;2023-03-11T05:37:59;0.20;99.90
9383;DHT22;4731;49.708;10.816;2023-03-11T05:40:26;0.20;99.90
9383;DHT22;4731;49.708;10.816;2023-03-11T05:42:52;0.20;99.90
9383;DHT22;4731;49.708;10.816;2023-03-11T05:45:19;0.20;99.90
9383;DHT22;4731;49.708;10.816;2023-03-11T05:47:46;0.20;99.90
9383;DHT22;4731;49.708;10.816;2023-03-11T05:50:13;0.10;99.90
9383;DHT22;4731;49.708;10.816;2023-03-11T05:52:40;0.20;99.90
9383;DHT22;4731;49.708;10.816;2023-03-11T05:55:09;2.00;99.90
9383;DHT22;4731;49.708;10.816;2023-03-11T05:57:37;0.20;99.90
9383;DHT22;4731;49.708;10.816;2023-03-11T06:00:06;2.70;99.90
9383;DHT22;4731;49.708;10.816;2023-03-11T06:02:37;0.40;99.90
9383;DHT22;4731;49.708;10.816;2023-03-11T06:05:05;0.50;99.90
9383;DHT22;4731;49.708;10.816;2023-03-11T06:07:33;0.50;99.90
9383;DHT22;4731;49.708;10.816;2023-03-11T06:09:59;0.60;99.90
9383;DHT22;4731;49.708;10.816;2023-03-11T06:12:27;0.60;99.90
9383;DHT22;4731;49.708;10.816;2023-03-11T06:14:54;0.60;99.90
9383;DHT22;4731;49.708;10.816;2023-03-11T06:17:21;0.70;99.90
9383;DHT22;4731;49.708;10.816;2023-03-11T06:19:48;0.70;99.90
9383;DHT22;4731;49.708;10.816;2023-03-11T06:22:14;0.70;99.90
9383;DHT22;4731;49.708;10.816;2023-03-11T06:24:41;0.70;99.90
9383;DHT22;4731;49.708;10.816;2023-03-11T06:27:08;0.80;99.90
9383;DHT22;4731;49.708;10.816;2023-03-11T06:29:37;0.80;99.90
9383;DHT22;4731;49.708;10.816;2023-03-11T06:32:05;0.80;99.90
9383;DHT22;4731;49.708;10.816;2023-03-11T06:34:32;0.90;99.90
9383;DHT22;4731;49.708;10.816;2023-03-11T06:36:59;1.00;99.90
9383;DHT22;4731;49.708;10.816;2023-03-11T06:39:25;1.10;99.90
9383;DHT22;4731;49.708;10.816;2023-03-11T06:41:52;1.30;99.90
9383;DHT22;4731;49.708;10.816;2023-03-11T06:44:19;1.40;99.90
9383;DHT22;4731;49.708;10.816;2023-03-11T06:46:47;1.30;99.90
9383;DHT22;4731;49.708;10.816;2023-03-11T06:49:14;1.30;99.90
9383;DHT22;4731;49.708;10.816;2023-03-11T06:51:41;1.20;99.90
9383;DHT22;4731;49.708;10.816;2023-03-11T06:54:09;1.30;99.90
9383;DHT22;4731;49.708;10.816;2023-03-11T06:56:35;1.30;99.90
9383;DHT22;4731;49.708;10.816;2023-03-11T06:59:02;1.40;99.90
9383;DHT22;4731;49.708;10.816;2023-03-11T07:01:29;1.40;99.90
9383;DHT22;4731;49.708;10.816;2023-03-11T07:03:57;1.30;99.90
9383;DHT22;4731;49.708;10.816;2023-03-11T07:06:26;1.30;99.90
9383;DHT22;4731;49.708;10.816;2023-03-11T07:08:53;1.30;99.90
9383;DHT22;4731;49.708;10.816;2023-03-11T07:11:21;1.30;99.90
9383;DHT22;4731;49.708;10.816;2023-03-11T07:13:49;1.30;99.90
9383;DHT22;4731;49.708;10.816;2023-03-11T07:16:18;1.40;99.90
9383;DHT22;4731;49.708;10.816;2023-03-11T07:18:47;1.50;99.90
9383;DHT22;4731;49.708;10.816;2023-03-11T07:21:17;1.70;99.90
9383;DHT22;4731;49.708;10.816;2023-03-11T07:23:44;1.00;99.90
9383;DHT22;4731;49.708;10.816;2023-03-11T07:26:12;2.00;99.90
9383;DHT22;4731;49.708;10.816;2023-03-11T07:28:40;2.20;99.90
9383;DHT22;4731;49.708;10.816;2023-03-11T07:31:08;2.40;99.90
9383;DHT22;4731;49.708;10.816;2023-03-11T07:33:35;2.60;99.90
9383;DHT22;4731;49.708;10.816;2023-03-11T07:36:06;2.70;99.90
9383;DHT22;4731;49.708;10.816;2023-03-11T07:38:35;2.90;99.90
9383;DHT22;4731;49.708;10.816;2023-03-11T07:41:02;3.10;99.90
9383;DHT22;4731;49.708;10.816;2023-03-11T07:43:29;3.30;99.90
9383;DHT22;4731;49.708;10.816;2023-03-11T07:46:04;3.90;99.90
9383;DHT22;4731;49.708;10.816;2023-03-11T07:48:31;5.70;99.90
9383;DHT22;4731;49.708;10.816;2023-03-11T07:51:03;9.50;99.90
9383;DHT22;4731;49.708;10.816;2023-03-11T07:53:30;8.00;99.90
9383;DHT22;4731;49.708;10.816;2023-03-11T07:55:59;9.00;99.90
9383;DHT22;4731;49.708;10.816;2023-03-11T07:58:26;9.80;99.90
9383;DHT22;4731;49.708;10.816;2023-03-11T08:00:53;10.70;99.90
9383;DHT22;4731;49.708;10.816;2023-03-11T08:03:21;9.90;99.90
9383;DHT22;4731;49.708;10.816;2023-03-11T08:05:48;9.60;99.90
9383;DHT22;4731;49.708;10.816;2023-03-11T08:08:15;10.40;99.90
9383;DHT22;4731;49.708;10.816;2023-03-11T08:10:42;9.90;99.90
9383;DHT22;4731;49.708;10.816;2023-03-11T08:13:10;9.90;99.90
9383;DHT22;4731;49.708;10.816;2023-03-11T08:15:48;10.20;99.90
9383;DHT22;4731;49.708;10.816;2023-03-11T08:18:15;10.90;99.90
9383;DHT22;4731;49.708;10.816;2023-03-11T08:20:42;10.70;99.90
9383;DHT22;4731;49.708;10.816;2023-03-11T08:23:09;12.70;99.90
9383;DHT22;4731;49.708;10.816;2023-03-11T08:25:37;13.20;99.90
9383;DHT22;4731;49.708;10.816;2023-03-11T08:28:04;13.20;99.90
9383;DHT22;4731;49.708;10.816;2023-03-11T08:30:33;15.30;99.90
9383;DHT22;4731;49.708;10.816;2023-03-11T08:33:00;12.80;99.90
9383;DHT22;4731;49.708;10.816;2023-03-11T08:35:27;10.40;99.90
9383;DHT22;4731;49.708;10.816;2023-03-11T08:37:54;9.90;99.90
9383;DHT22;4731;49.708;10.816;2023-03-11T08:40:21;11.00;99.90
9383;DHT22;4731;49.708;10.816;2023-03-11T08:42:48;14.00;99.90
9383;DHT22;4731;49.708;10.816;2023-03-11T08:45:15;14.40;99.90
9383;DHT22;4731;49.708;10.816;2023-03-11T08:47:43;12.30;99.90
9383;DHT22;4731;49.708;10.816;2023-03-11T08:50:12;10.20;99.90
9383;DHT22;4731;49.708;10.816;2023-03-11T08:55:07;7.70;99.90
9383;DHT22;4731;49.708;10.816;2023-03-11T08:57:35;6.70;99.90
9383;DHT22;4731;49.708;10.816;2023-03-11T09:00:03;7.70;99.90
9383;DHT22;4731;49.708;10.816;2023-03-11T09:02:31;7.70;99.90
9383;DHT22;4731;49.708;10.816;2023-03-11T09:04:59;7.20;99.90
9383;DHT22;4731;49.708;10.816;2023-03-11T09:07:26;6.30;99.90
9383;DHT22;4731;49.708;10.816;2023-03-11T09:09:53;5.50;99.90
9383;DHT22;4731;49.708;10.816;2023-03-11T09:12:20;3.90;99.90
9383;DHT22;4731;49.708;10.816;2023-03-11T09:14:47;3.90;99.90
9383;DHT22;4731;49.708;10.816;2023-03-11T09:17:14;6.20;99.90
9383;DHT22;4731;49.708;10.816;2023-03-11T09:19:41;9.40;99.90
9383;DHT22;4731;49.708;10.816;2023-03-11T09:22:10;12.30;99.90
9383;DHT22;4731;49.708;10.816;2023-03-11T09:24:36;14.80;99.90
9383;DHT22;4731;49.708;10.816;2023-03-11T09:27:03;15.60;99.90
9383;DHT22;4731;49.708;10.816;2023-03-11T09:29:30;14.20;99.30
9383;DHT22;4731;49.708;10.816;2023-03-11T09:31:57;15.30;97.00
9383;DHT22;4731;49.708;10.816;2023-03-11T09:34:24;12.90;99.90
9383;DHT22;4731;49.708;10.816;2023-03-11T09:36:51;10.70;99.90
9383;DHT22;4731;49.708;10.816;2023-03-11T09:39:19;10.90;99.90
9383;DHT22;4731;49.708;10.816;2023-03-11T09:41:51;8.30;99.90
9383;DHT22;4731;49.708;10.816;2023-03-11T09:44:21;6.50;99.90
9383;DHT22;4731;49.708;10.816;2023-03-11T09:52:36;11.30;99.90
9383;DHT22;4731;49.708;10.816;2023-03-11T09:58:01;11.70;99.90
9383;DHT22;4731;49.708;10.816;2023-03-11T10:00:29;8.60;99.90
9383;DHT22;4731;49.708;10.816;2023-03-11T10:02:56;6.80;99.90
9383;DHT22;4731;49.708;10.816;2023-03-11T10:05:26;7.40;99.90
9383;DHT22;4731;49.708;10.816;2023-03-11T10:07:58;7.20;99.90
9383;DHT22;4731;49.708;10.816;2023-03-11T10:10:31;10.00;99.90
9383;DHT22;4731;49.708;10.816;2023-03-11T10:13:05;8.80;99.90
9383;DHT22;4731;49.708;10.816;2023-03-11T10:15:41;8.10;99.90
9383;DHT22;4731;49.708;10.816;2023-03-11T10:18:28;6.80;99.90
9383;DHT22;4731;49.708;10.816;2023-03-11T10:21:02;6.70;99.90
9383;DHT22;4731;49.708;10.816;2023-03-11T10:23:36;6.40;99.90
9383;DHT22;4731;49.708;10.816;2023-03-11T10:26:12;5.40;99.90
9383;DHT22;4731;49.708;10.816;2023-03-11T10:28:43;5.10;99.90
9383;DHT22;4731;49.708;10.816;2023-03-11T10:31:18;4.90;99.90
9383;DHT22;4731;49.708;10.816;2023-03-11T10:33:49;4.70;99.90
9383;DHT22;4731;49.708;10.816;2023-03-11T10:36:19;4.40;99.90
9383;DHT22;4731;49.708;10.816;2023-03-11T10:38:49;4.00;99.90
9383;DHT22;4731;49.708;10.816;2023-03-11T10:41:21;3.80;99.90
9383;DHT22;4731;49.708;10.816;2023-03-11T10:43:53;6.70;99.90
9383;DHT22;4731;49.708;10.816;2023-03-11T10:46:27;3.80;99.90
9383;DHT22;4731;49.708;10.816;2023-03-11T10:49:04;3.60;99.90
9383;DHT22;4731;49.708;10.816;2023-03-11T10:51:33;3.50;99.90
9383;DHT22;4731;49.708;10.816;2023-03-11T10:54:01;3.70;99.90
9383;DHT22;4731;49.708;10.816;2023-03-11T10:56:31;3.80;99.90
9383;DHT22;4731;49.708;10.816;2023-03-11T10:58:59;4.10;99.90
9383;DHT22;4731;49.708;10.816;2023-03-11T11:01:27;3.80;99.90
9383;DHT22;4731;49.708;10.816;2023-03-11T11:03:56;4.00;99.90
9383;DHT22;4731;49.708;10.816;2023-03-11T11:06:26;4.10;99.90
9383;DHT22;4731;49.708;10.816;2023-03-11T11:09:13;4.00;99.90
9383;DHT22;4731;49.708;10.816;2023-03-11T11:11:59;3.90;99.90
9383;DHT22;4731;49.708;10.816;2023-03-11T11:14:41;3.60;99.90
9383;DHT22;4731;49.708;10.816;2023-03-11T11:17:26;3.60;99.90
9383;DHT22;4731;49.708;10.816;2023-03-11T11:19:55;3.60;99.90
9383;DHT22;4731;49.708;10.816;2023-03-11T11:22:24;3.70;99.90
9383;DHT22;4731;49.708;10.816;2023-03-11T11:24:52;6.30;99.90
9383;DHT22;4731;49.708;10.816;2023-03-11T11:27:23;3.80;99.90
9383;DHT22;4731;49.708;10.816;2023-03-11T11:30:13;4.00;99.90
9383;DHT22;4731;49.708;10.816;2023-03-11T11:32:41;4.20;99.90
9383;DHT22;4731;49.708;10.816;2023-03-11T11:35:11;4.10;99.90
9383;DHT22;4731;49.708;10.816;2023-03-11T11:37:41;4.30;99.90
9383;DHT22;4731;49.708;10.816;2023-03-11T11:40:23;4.30;99.90
9383;DHT22;4731;49.708;10.816;2023-03-11T11:42:56;4.30;99.90
9383;DHT22;4731;49.708;10.816;2023-03-11T11:45:33;4.30;99.90
9383;DHT22;4731;49.708;10.816;2023-03-11T11:48:10;4.30;99.90
9383;DHT22;4731;49.708;10.816;2023-03-11T11:50:42;4.70;99.90
9383;DHT22;4731;49.708;10.816;2023-03-11T11:53:23;4.80;99.90
9383;DHT22;4731;49.708;10.816;2023-03-11T11:55:52;5.20;99.90
9383;DHT22;4731;49.708;10.816;2023-03-11T11:58:21;5.40;99.90
9383;DHT22;4731;49.708;10.816;2023-03-11T12:01:13;5.50;99.90
9383;DHT22;4731;49.708;10.816;2023-03-11T12:04:19;6.20;99.90
9383;DHT22;4731;49.708;10.816;2023-03-11T12:07:02;6.80;99.90
9383;DHT22;4731;49.708;10.816;2023-03-11T12:09:36;8.00;99.90
9383;DHT22;4731;49.708;10.816;2023-03-11T12:12:13;9.10;99.90
9383;DHT22;4731;49.708;10.816;2023-03-11T12:14:49;10.00;99.90
9383;DHT22;4731;49.708;10.816;2023-03-11T12:17:37;9.80;99.90
9383;DHT22;4731;49.708;10.816;2023-03-11T12:20:11;9.40;99.90
9383;DHT22;4731;49.708;10.816;2023-03-11T12:23:00;8.70;99.90
9383;DHT22;4731;49.708;10.816;2023-03-11T12:25:35;8.80;99.90
9383;DHT22;4731;49.708;10.816;2023-03-11T12:28:13;8.90;99.90
9383;DHT22;4731;49.708;10.816;2023-03-11T12:30:44;9.10;99.90
9383;DHT22;4731;49.708;10.816;2023-03-11T12:33:15;9.80;99.90
9383;DHT22;4731;49.708;10.816;2023-03-11T12:35:53;10.60;99.90
9383;DHT22;4731;49.708;10.816;2023-03-11T12:38:26;12.20;99.90
9383;DHT22;4731;49.708;10.816;2023-03-11T12:40:59;12.90;99.90
9383;DHT22;4731;49.708;10.816;2023-03-11T12:44:00;10.50;99.90
9383;DHT22;4731;49.708;10.816;2023-03-11T12:47:01;9.30;99.90
9383;DHT22;4731;49.708;10.816;2023-03-11T12:49:29;8.50;99.90
9383;DHT22;4731;49.708;10.816;2023-03-11T12:54:46;7.00;99.90
9383;DHT22;4731;49.708;10.816;2023-03-11T12:57:31;6.10;99.90
9383;DHT22;4731;49.708;10.816;2023-03-11T13:00:07;5.50;99.90
9383;DHT22;4731;49.708;10.816;2023-03-11T13:03:15;5.20;99.90
9383;DHT22;4731;49.708;10.816;2023-03-11T13:05:56;5.10;99.90
9383;DHT22;4731;49.708;10.816;2023-03-11T13:08:25;5.20;99.90
9383;DHT22;4731;49.708;10.816;2023-03-11T13:10:53;5.10;99.90
9383;DHT22;4731;49.708;10.816;2023-03-11T13:13:38;5.10;99.90
9383;DHT22;4731;49.708;10.816;2023-03-11T13:16:35;6.00;99.90
9383;DHT22;4731;49.708;10.816;2023-03-11T13:19:34;4.90;99.90
9383;DHT22;4731;49.708;10.816;2023-03-11T13:22:02;4.70;99.90
9383;DHT22;4731;49.708;10.816;2023-03-11T13:24:40;4.60;99.90
9383;DHT22;4731;49.708;10.816;2023-03-11T13:27:24;4.70;99.90
9383;DHT22;4731;49.708;10.816;2023-03-11T13:30:03;4.60;99.90
9383;DHT22;4731;49.708;10.816;2023-03-11T13:33:01;4.50;99.90
9383;DHT22;4731;49.708;10.816;2023-03-11T13:35:51;4.60;99.90
9383;DHT22;4731;49.708;10.816;2023-03-11T13:41:20;4.70;99.90
9383;DHT22;4731;49.708;10.816;2023-03-11T13:43:49;4.50;99.90
9383;DHT22;4731;49.708;10.816;2023-03-11T13:46:25;4.20;99.90
9383;DHT22;4731;49.708;10.816;2023-03-11T13:49:02;4.30;99.90
9383;DHT22;4731;49.708;10.816;2023-03-11T13:51:36;4.40;99.90
9383;DHT22;4731;49.708;10.816;2023-03-11T13:54:19;4.30;99.90
9383;DHT22;4731;49.708;10.816;2023-03-11T13:56:51;4.20;99.90
9383;DHT22;4731;49.708;10.816;2023-03-11T13:59:22;4.20;99.90
9383;DHT22;4731;49.708;10.816;2023-03-11T14:01:50;4.20;99.90
9383;DHT22;4731;49.708;10.816;2023-03-11T14:04:24;4.20;99.90
9383;DHT22;4731;49.708;10.816;2023-03-11T14:06:53;4.20;99.90
9383;DHT22;4731;49.708;10.816;2023-03-11T14:09:22;4.20;99.90
9383;DHT22;4731;49.708;10.816;2023-03-11T14:11:49;4.30;99.90
9383;DHT22;4731;49.708;10.816;2023-03-11T14:14:31;4.30;99.90
9383;DHT22;4731;49.708;10.816;2023-03-11T14:16:59;4.10;99.90
9383;DHT22;4731;49.708;10.816;2023-03-11T14:19:28;7.00;99.90
9383;DHT22;4731;49.708;10.816;2023-03-11T14:21:56;4.20;99.90
9383;DHT22;4731;49.708;10.816;2023-03-11T14:24:25;4.40;99.90
9383;DHT22;4731;49.708;10.816;2023-03-11T14:26:53;4.30;99.90
9383;DHT22;4731;49.708;10.816;2023-03-11T14:29:26;4.40;99.90
9383;DHT22;4731;49.708;10.816;2023-03-11T14:31:55;4.50;99.90
9383;DHT22;4731;49.708;10.816;2023-03-11T14:34:23;4.50;99.90
9383;DHT22;4731;49.708;10.816;2023-03-11T14:36:53;4.30;99.90
9383;DHT22;4731;49.708;10.816;2023-03-11T14:39:28;4.20;99.90
9383;DHT22;4731;49.708;10.816;2023-03-11T14:42:00;4.10;99.90
9383;DHT22;4731;49.708;10.816;2023-03-11T14:44:30;4.30;99.90
9383;DHT22;4731;49.708;10.816;2023-03-11T14:47:07;4.10;99.90
9383;DHT22;4731;49.708;10.816;2023-03-11T14:49:36;4.20;99.90
9383;DHT22;4731;49.708;10.816;2023-03-11T14:52:07;4.00;99.90
9383;DHT22;4731;49.708;10.816;2023-03-11T14:54:38;3.70;99.90
9383;DHT22;4731;49.708;10.816;2023-03-11T14:57:07;4.10;99.90
9383;DHT22;4731;49.708;10.816;2023-03-11T14:59:39;4.20;99.90
9383;DHT22;4731;49.708;10.816;2023-03-11T15:02:29;4.30;99.90
9383;DHT22;4731;49.708;10.816;2023-03-11T15:04:58;4.30;99.90
9383;DHT22;4731;49.708;10.816;2023-03-11T15:07:28;4.20;99.90
9383;DHT22;4731;49.708;10.816;2023-03-11T15:09:56;4.20;99.90
9383;DHT22;4731;49.708;10.816;2023-03-11T15:12:31;4.30;99.90
9383;DHT22;4731;49.708;10.816;2023-03-11T15:15:00;4.20;99.90
9383;DHT22;4731;49.708;10.816;2023-03-11T15:17:29;4.00;99.90
9383;DHT22;4731;49.708;10.816;2023-03-11T15:19:57;4.00;99.90
9383;DHT22;4731;49.708;10.816;2023-03-11T15:22:25;5.20;99.90
9383;DHT22;4731;49.708;10.816;2023-03-11T15:24:54;3.80;99.90
9383;DHT22;4731;49.708;10.816;2023-03-11T15:27:28;3.80;99.90
9383;DHT22;4731;49.708;10.816;2023-03-11T15:29:56;6.50;99.90
9383;DHT22;4731;49.708;10.816;2023-03-11T15:32:36;3.70;99.90
9383;DHT22;4731;49.708;10.816;2023-03-11T15:35:14;3.50;99.90
9383;DHT22;4731;49.708;10.816;2023-03-11T15:37:42;3.70;99.90
9383;DHT22;4731;49.708;10.816;2023-03-11T15:40:11;3.60;99.90
9383;DHT22;4731;49.708;10.816;2023-03-11T15:45:14;3.70;99.90
9383;DHT22;4731;49.708;10.816;2023-03-11T15:47:41;3.70;99.90
9383;DHT22;4731;49.708;10.816;2023-03-11T15:50:20;3.70;99.90
9383;DHT22;4731;49.708;10.816;2023-03-11T15:52:49;3.80;99.90
9383;DHT22;4731;49.708;10.816;2023-03-11T15:55:16;3.80;99.90
9383;DHT22;4731;49.708;10.816;2023-03-11T15:57:47;3.80;99.90
9383;DHT22;4731;49.708;10.816;2023-03-11T16:00:17;3.70;99.90
9383;DHT22;4731;49.708;10.816;2023-03-11T16:02:44;3.70;99.90
9383;DHT22;4731;49.708;10.816;2023-03-11T16:05:13;3.70;99.90
9383;DHT22;4731;49.708;10.816;2023-03-11T16:07:40;3.80;99.90
9383;DHT22;4731;49.708;10.816;2023-03-11T16:10:08;3.70;99.90
9383;DHT22;4731;49.708;10.816;2023-03-11T16:12:35;3.70;99.90
9383;DHT22;4731;49.708;10.816;2023-03-11T16:17:30;3.70;99.90
9383;DHT22;4731;49.708;10.816;2023-03-11T16:19:57;3.60;99.90
9383;DHT22;4731;49.708;10.816;2023-03-11T16:22:33;3.50;99.90
9383;DHT22;4731;49.708;10.816;2023-03-11T16:25:04;3.60;99.90
9383;DHT22;4731;49.708;10.816;2023-03-11T16:27:33;3.60;99.90
9383;DHT22;4731;49.708;10.816;2023-03-11T16:30:00;3.50;99.90
9383;DHT22;4731;49.708;10.816;2023-03-11T16:32:29;3.50;99.90
9383;DHT22;4731;49.708;10.816;2023-03-11T16:37:24;3.40;99.90
9383;DHT22;4731;49.708;10.816;2023-03-11T16:42:20;3.30;99.90
9383;DHT22;4731;49.708;10.816;2023-03-11T16:44:48;3.30;99.90